createdAt,value
2023-03-17T00:02:17.224Z,100003.88
2023-03-17T00:04:49.456Z,100009.07
2023-03-17T00:07:21.549Z,100005.64
2023-03-17T00:09:53.534Z,100010.86
2023-03-17T00:12:25.808Z,100001.41
2023-03-17T00:14:58.610Z,100010.05
2023-03-17T00:17:31.305Z,100015.25
2023-03-17T00:20:03.945Z,100020.44
2023-03-17T00:22:36.133Z,100014.32
2023-03-17T00:25:19.805Z,100010.08
2023-03-17T00:27:52.018Z,100014.30
2023-03-17T00:30:24.994Z,100013.55
2023-03-17T00:32:59.308Z,100021.45
2023-03-17T00:35:30.569Z,100019.66
2023-03-17T00:38:02.347Z,100015.94
2023-03-17T00:40:34.608Z,100021.50
2023-03-17T00:43:08.396Z,100015.50
2023-03-17T00:45:44.247Z,100022.53
2023-03-17T00:48:19.852Z,100021.72
2023-03-17T00:50:52.258Z,100014.80
2023-03-17T00:53:24.329Z,100019.19
2023-03-17T00:55:56.843Z,100026.19
2023-03-17T00:58:31.925Z,100016.78
2023-03-17T01:01:04.088Z,100023.72
2023-03-17T01:03:36.318Z,100025.53
2023-03-17T01:06:11.520Z,100030.74
2023-03-17T01:08:44.961Z,100034.13
2023-03-17T01:11:19.334Z,100039.36
2023-03-17T01:13:51.695Z,100042.82
2023-03-17T01:16:24.202Z,100051.49
2023-03-17T01:18:56.206Z,100060.19
2023-03-17T01:21:28.388Z,100063.65
2023-03-17T01:24:00.692Z,100064.51
2023-03-17T01:26:34.293Z,100070.61
2023-03-17T01:29:08.021Z,100069.80
2023-03-17T01:31:40.128Z,100087.09
2023-03-17T01:34:12.686Z,100096.57
2023-03-17T01:36:47.502Z,100087.98
2023-03-17T01:39:19.795Z,100092.27
2023-03-17T01:41:53.265Z,100095.80
2023-03-17T01:44:25.767Z,100103.56
2023-03-17T01:46:57.747Z,100100.95
2023-03-17T01:49:32.069Z,100112.23
2023-03-17T01:52:12.720Z,100107.94
2023-03-17T01:54:50.838Z,100107.07
2023-03-17T01:57:26.750Z,100124.35
2023-03-17T02:00:14.113Z,100122.65
2023-03-17T02:02:48.990Z,100121.86
2023-03-17T02:05:24.312Z,100131.36
2023-03-17T02:07:56.942Z,100133.98
2023-03-17T02:10:32.457Z,100127.98
2023-03-17T02:13:05.972Z,100130.59
2023-03-17T02:15:41.424Z,100130.59
2023-03-17T02:18:15.633Z,100120.20
2023-03-17T02:20:50.876Z,100129.73
2023-03-17T02:23:24.525Z,100123.73
2023-03-17T02:25:57.019Z,100125.47
2023-03-17T02:28:31.760Z,100115.06
2023-03-17T02:31:04.831Z,100123.77
2023-03-17T02:33:37.115Z,100120.38
2023-03-17T02:36:11.056Z,100135.11
2023-03-17T02:38:42.548Z,100131.75
2023-03-17T02:41:14.161Z,100153.06
2023-03-17T02:43:46.674Z,100158.55
2023-03-17T02:46:18.825Z,100171.53
2023-03-17T02:48:51.885Z,100196.58
2023-03-17T02:51:24.109Z,100200.06
2023-03-17T02:53:56.232Z,100208.69
2023-03-17T02:56:28.376Z,100206.95
2023-03-17T02:59:00.352Z,100200.95
2023-03-17T03:01:32.404Z,100200.06
2023-03-17T03:04:04.390Z,100205.20
2023-03-17T03:06:37.638Z,100211.28
2023-03-17T03:09:11.843Z,100232.83
2023-03-17T03:11:43.080Z,100223.37
2023-03-17T03:14:15.099Z,100233.47
2023-03-17T03:16:47.549Z,100223.31
2023-03-17T03:19:19.892Z,100227.61
2023-03-17T03:21:52.218Z,100232.02
2023-03-17T03:24:24.413Z,100236.31
2023-03-17T03:26:56.582Z,100242.38
2023-03-17T03:29:28.853Z,100244.05
2023-03-17T03:32:01.063Z,100255.24
2023-03-17T03:34:33.584Z,100254.35
2023-03-17T03:37:05.477Z,100246.64
2023-03-17T03:39:38.135Z,100256.12
2023-03-17T03:42:10.934Z,100241.46
2023-03-17T03:44:43.240Z,100248.37
2023-03-17T03:47:15.648Z,100260.42
2023-03-17T03:49:47.812Z,100263.00
2023-03-17T03:52:20.339Z,100280.28
2023-03-17T03:54:52.362Z,100277.69
2023-03-17T03:57:24.323Z,100282.02
2023-03-17T03:59:56.312Z,100284.61
2023-03-17T04:02:28.462Z,100282.84
2023-03-17T04:05:01.141Z,100288.80
2023-03-17T04:07:33.277Z,100284.48
2023-03-17T04:10:06.902Z,100301.63
2023-03-17T04:12:39.515Z,100299.09
2023-03-17T04:15:15.010Z,100301.69
2023-03-17T04:17:47.568Z,100306.81
2023-03-17T04:20:20.397Z,100315.45
2023-03-17T04:22:53.042Z,100318.05
2023-03-17T04:25:25.246Z,100324.05
2023-03-17T04:27:57.341Z,100321.42
2023-03-17T04:30:30.001Z,100322.31
2023-03-17T04:33:02.440Z,100335.19
2023-03-17T04:35:34.772Z,100329.97
2023-03-17T04:38:07.130Z,100341.17
2023-03-17T04:40:39.325Z,100344.57
2023-03-17T04:43:12.165Z,100346.26
2023-03-17T04:45:44.407Z,100342.84
2023-03-17T04:48:16.973Z,100366.08
2023-03-17T04:50:48.939Z,100366.84
2023-03-17T04:53:21.435Z,100389.16
2023-03-17T04:55:54.061Z,100380.41
2023-03-17T04:58:30.933Z,100389.00
2023-03-17T05:01:00.397Z,100394.98
2023-03-17T05:03:33.403Z,100385.46
2023-03-17T05:06:07.164Z,100395.80
2023-03-17T05:08:39.488Z,100395.75
2023-03-17T05:11:12.518Z,100400.84
2023-03-17T05:13:44.843Z,100403.45
2023-03-17T05:16:17.088Z,100407.67
2023-03-17T05:18:49.324Z,100406.70
2023-03-17T05:21:22.131Z,100428.21
2023-03-17T05:23:55.089Z,100429.01
2023-03-17T05:26:29.802Z,100428.08
2023-03-17T05:29:02.641Z,100438.45
2023-03-17T05:31:35.053Z,100447.05
2023-03-17T05:34:07.464Z,100446.13
2023-03-17T05:36:40.532Z,100453.83
2023-03-17T05:39:14.679Z,100452.91
2023-03-17T05:41:47.287Z,100449.41
2023-03-17T05:44:19.683Z,100453.63
2023-03-17T05:46:53.658Z,100450.95
2023-03-17T05:49:27.709Z,100461.24
2023-03-17T05:52:00.549Z,100467.14
2023-03-17T05:54:33.405Z,100474.84
2023-03-17T05:57:06.062Z,100467.02
2023-03-17T05:59:38.464Z,100472.97
2023-03-17T06:02:11.757Z,100485.82
2023-03-17T06:04:44.105Z,100480.52
2023-03-17T06:07:17.773Z,100467.39
2023-03-17T06:09:50.081Z,100480.25
2023-03-17T06:12:22.382Z,100485.48
2023-03-17T06:14:54.535Z,100482.97
2023-03-17T06:17:27.059Z,100486.52
2023-03-17T06:19:59.510Z,100495.21
2023-03-17T06:22:33.652Z,100500.56
2023-03-17T06:25:06.753Z,100497.22
2023-03-17T06:27:39.788Z,100493.02
2023-03-17T06:30:13.776Z,100493.14
2023-03-17T06:32:46.462Z,100500.94
2023-03-17T06:35:19.745Z,100502.69
2023-03-17T06:37:52.154Z,100492.25
2023-03-17T06:40:25.635Z,100507.53
2023-03-17T06:42:59.729Z,100501.11
2023-03-17T06:45:34.400Z,100498.54
2023-03-17T06:48:07.139Z,100486.15
2023-03-17T06:50:40.151Z,100485.22
2023-03-17T06:53:13.053Z,100504.44
2023-03-17T06:55:45.950Z,100489.09
2023-03-17T06:58:18.453Z,100497.40
2023-03-17T07:00:52.201Z,100497.83
2023-03-17T07:03:25.528Z,100509.70
2023-03-17T07:05:58.574Z,100507.84
2023-03-17T07:08:31.511Z,100496.68
2023-03-17T07:11:04.710Z,100514.47
2023-03-17T07:13:39.041Z,100506.08
2023-03-17T07:16:12.879Z,100501.42
2023-03-17T07:18:45.290Z,100508.73
2023-03-17T07:21:18.507Z,100522.50
2023-03-17T07:23:51.311Z,100517.48
2023-03-17T07:26:24.692Z,100528.92
2023-03-17T07:28:57.575Z,100534.17
2023-03-17T07:31:30.763Z,100540.99
2023-03-17T07:34:04.861Z,100546.05
2023-03-17T07:36:38.125Z,100539.83
2023-03-17T07:39:12.072Z,100564.84
2023-03-17T07:41:44.882Z,100548.31
2023-03-17T07:44:17.914Z,100554.30
2023-03-17T07:46:51.910Z,100549.95
2023-03-17T07:49:40.100Z,100546.38
2023-03-17T07:51:58.313Z,100554.97
2023-03-17T07:54:30.901Z,100547.14
2023-03-17T07:57:03.080Z,100554.03
2023-03-17T07:59:36.089Z,100563.46
2023-03-17T08:02:08.763Z,100558.14
2023-03-17T08:04:41.664Z,100563.46
2023-03-17T08:07:15.698Z,100574.07
2023-03-17T08:09:48.368Z,100571.77
2023-03-17T08:12:20.979Z,100578.92
2023-03-17T08:14:55.614Z,100576.34
2023-03-17T08:17:27.783Z,100605.81
2023-03-17T08:20:00.964Z,100594.51
2023-03-17T08:22:33.728Z,100599.56
2023-03-17T08:25:06.671Z,100597.42
2023-03-17T08:27:40.064Z,100596.98
2023-03-17T08:30:13.501Z,100607.80
2023-03-17T08:32:46.891Z,100608.60
2023-03-17T08:35:19.723Z,100610.59
2023-03-17T08:37:56.086Z,100619.53
2023-03-17T08:40:27.272Z,100629.38
2023-03-17T08:42:59.872Z,100632.16
2023-03-17T08:45:32.991Z,100633.92
2023-03-17T08:48:05.317Z,100640.55
2023-03-17T08:50:38.728Z,100650.63
2023-03-17T08:53:11.016Z,100667.77
2023-03-17T08:55:44.007Z,100649.58
2023-03-17T08:58:23.026Z,100642.69
2023-03-17T09:00:57.662Z,100642.83
2023-03-17T09:03:31.041Z,100646.34
2023-03-17T09:06:04.985Z,100643.00
2023-03-17T09:08:43.496Z,100662.08
2023-03-17T09:11:18.965Z,100653.44
2023-03-17T09:13:57.036Z,100659.43
2023-03-17T09:16:33.233Z,100657.66
2023-03-17T09:19:11.129Z,100665.55
2023-03-17T09:21:43.336Z,100677.13
2023-03-17T09:24:16.045Z,100675.91
2023-03-17T09:26:49.059Z,100680.78
2023-03-17T09:29:21.318Z,100691.66
2023-03-17T09:31:56.095Z,100677.20
2023-03-17T09:34:28.585Z,100699.80
2023-03-17T09:37:01.069Z,100684.27
2023-03-17T09:39:33.860Z,100688.72
2023-03-17T09:42:21.613Z,100692.22
2023-03-17T09:45:14.020Z,100691.39
2023-03-17T09:47:55.242Z,100688.78
2023-03-17T09:50:30.596Z,100698.09
2023-03-17T09:53:05.405Z,100697.95
2023-03-17T09:55:39.004Z,100697.86
2023-03-17T09:58:12.958Z,100698.78
2023-03-17T10:00:44.851Z,100701.34
2023-03-17T10:03:18.479Z,100695.74
2023-03-17T10:05:50.734Z,100694.16
2023-03-17T10:08:34.903Z,100695.66
2023-03-17T10:11:24.668Z,100714.20
2023-03-17T10:14:28.772Z,100711.17
2023-03-17T10:17:06.132Z,100703.44
2023-03-17T10:19:44.112Z,100703.33
2023-03-17T10:22:23.853Z,100707.33
2023-03-17T10:24:58.802Z,100707.13
2023-03-17T10:27:33.788Z,100710.58
2023-03-17T10:30:09.611Z,100716.55
2023-03-17T10:32:42.822Z,100709.66
2023-03-17T10:35:17.561Z,100708.78
2023-03-17T10:37:48.864Z,100715.80
2023-03-17T10:40:30.809Z,100710.27
2023-03-17T10:43:08.828Z,100718.35
2023-03-17T10:45:45.250Z,100718.52
2023-03-17T10:48:20.470Z,100709.16
2023-03-17T10:50:54.390Z,100714.34
2023-03-17T10:53:28.708Z,100709.10
2023-03-17T10:56:03.741Z,100717.71
2023-03-17T10:58:47.443Z,100708.95
2023-03-17T11:01:43.614Z,100725.50
2023-03-17T11:04:36.709Z,100713.36
2023-03-17T11:07:12.150Z,100720.29
2023-03-17T11:09:44.488Z,100714.15
2023-03-17T11:12:28.192Z,100730.52
2023-03-17T11:15:03.879Z,100735.70
2023-03-17T11:17:50.698Z,100731.24
2023-03-17T11:20:43.399Z,100736.58
2023-03-17T11:23:36.193Z,100741.65
2023-03-17T11:26:15.276Z,100747.73
2023-03-17T11:28:59.253Z,100742.69
2023-03-17T11:31:34.329Z,100740.98
2023-03-17T11:34:12.234Z,100746.20
2023-03-17T11:37:07.129Z,100736.61
2023-03-17T11:39:45.297Z,100738.31
2023-03-17T11:42:23.385Z,100745.19
2023-03-17T11:45:10.442Z,100746.00
2023-03-17T11:47:54.432Z,100734.63
2023-03-17T11:50:41.708Z,100746.78
2023-03-17T11:53:37.791Z,100750.14
2023-03-17T11:56:28.154Z,100749.27
2023-03-17T11:59:09.001Z,100750.95
2023-03-17T12:01:47.204Z,100753.66
2023-03-17T12:04:25.601Z,100754.55
2023-03-17T12:07:08.117Z,100761.48
2023-03-17T12:09:43.034Z,100764.09
2023-03-17T12:12:18.342Z,100752.75
2023-03-17T12:14:54.056Z,100763.19
2023-03-17T12:17:31.682Z,100759.67
2023-03-17T12:20:12.929Z,100763.13
2023-03-17T12:22:55.916Z,100768.29
2023-03-17T12:25:55.319Z,100768.34
2023-03-17T12:28:33.370Z,100770.06
2023-03-17T12:31:11.135Z,100774.32
2023-03-17T12:34:08.056Z,100776.90
2023-03-17T12:36:41.774Z,100778.58
2023-03-17T12:39:37.417Z,100797.52
2023-03-17T12:42:28.626Z,100792.59
2023-03-17T12:45:03.690Z,100796.73
2023-03-17T12:47:41.700Z,100793.18
2023-03-17T12:50:31.305Z,100792.65
2023-03-17T12:53:29.928Z,100783.47
2023-03-17T12:56:13.943Z,100774.27
2023-03-17T12:58:49.136Z,100774.86
2023-03-17T13:01:41.840Z,100777.02
2023-03-17T13:04:37.481Z,100761.09
2023-03-17T13:07:20.746Z,100771.47
2023-03-17T13:09:58.629Z,100783.62
2023-03-17T13:12:45.580Z,100768.97
2023-03-17T13:15:31.149Z,100774.44
2023-03-17T13:18:16.748Z,100775.75
2023-03-17T13:21:01.020Z,100766.41
2023-03-17T13:23:44.752Z,100771.59
2023-03-17T13:26:26.085Z,100770.06
2023-03-17T13:29:01.546Z,100782.27
2023-03-17T13:31:37.209Z,100773.06
2023-03-17T13:34:15.322Z,100766.56
2023-03-17T13:36:59.036Z,100787.47
2023-03-17T13:39:55.049Z,100780.04
2023-03-17T13:42:52.048Z,100780.88
2023-03-17T13:45:44.717Z,100784.59
2023-03-17T13:48:35.001Z,100783.91
2023-03-17T13:51:15.714Z,100790.07
2023-03-17T13:53:56.807Z,100803.80
2023-03-17T13:56:32.324Z,100791.36
2023-03-17T13:59:07.921Z,100800.64
2023-03-17T14:01:42.994Z,100824.87
2023-03-17T14:04:18.260Z,100803.45
2023-03-17T14:06:53.864Z,100807.93
2023-03-17T14:09:45.621Z,100810.86
2023-03-17T14:12:20.469Z,100805.34
2023-03-17T14:14:58.115Z,100816.66
2023-03-17T14:17:33.799Z,100824.95
2023-03-17T14:20:09.429Z,100842.08
2023-03-17T14:22:45.644Z,100842.14
2023-03-17T14:25:26.288Z,100843.05
2023-03-17T14:28:00.301Z,100855.53
2023-03-17T14:30:35.307Z,100866.52
2023-03-17T14:33:28.382Z,100864.45
2023-03-17T14:36:03.169Z,100866.36
2023-03-17T14:38:40.100Z,100880.58
2023-03-17T14:41:24.156Z,100880.39
2023-03-17T14:44:01.800Z,100884.92
2023-03-17T14:46:37.423Z,100873.44
2023-03-17T14:49:21.596Z,100889.05
2023-03-17T14:51:58.484Z,100891.55
2023-03-17T14:54:35.909Z,100895.63
2023-03-17T14:57:10.904Z,100893.33
2023-03-17T14:59:45.080Z,100888.55
2023-03-17T15:02:38.082Z,100893.19
2023-03-17T15:05:25.014Z,100899.41
2023-03-17T15:07:57.328Z,100904.86
2023-03-17T15:10:32.657Z,100915.48
2023-03-17T15:13:07.258Z,100917.39
2023-03-17T15:15:41.906Z,100916.73
2023-03-17T15:18:15.771Z,100916.59
2023-03-17T15:20:48.540Z,100918.72
2023-03-17T15:23:27.119Z,100924.09
2023-03-17T15:25:59.431Z,100931.20
2023-03-17T15:28:33.352Z,100934.72
2023-03-17T15:31:15.170Z,100936.56
2023-03-17T15:33:47.299Z,100947.01
2023-03-17T15:36:31.652Z,100942.81
2023-03-17T15:38:53.869Z,100958.50
2023-03-17T15:41:26.142Z,100956.78
2023-03-17T15:43:58.502Z,100952.49
2023-03-17T15:46:32.657Z,100957.69
2023-03-17T15:49:08.601Z,100968.11
2023-03-17T15:51:41.068Z,100968.14
2023-03-17T15:54:15.638Z,100964.75
2023-03-17T15:56:48.068Z,100969.11
2023-03-17T15:59:20.676Z,100983.07
2023-03-17T16:01:53.267Z,100997.86
2023-03-17T16:04:25.940Z,100989.25
2023-03-17T16:06:58.139Z,100997.95
2023-03-17T16:09:30.292Z,101011.83
2023-03-17T16:12:03.140Z,101019.69
2023-03-17T16:14:35.847Z,101009.36
2023-03-17T16:17:09.781Z,101015.45
2023-03-17T16:19:41.858Z,101018.09
2023-03-17T16:22:17.439Z,101012.91
2023-03-17T16:24:49.450Z,101020.73
2023-03-17T16:27:21.556Z,101025.93
2023-03-17T16:29:53.984Z,101036.34
2023-03-17T16:32:26.214Z,101040.70
2023-03-17T16:34:58.984Z,101040.70
2023-03-17T16:37:32.683Z,101045.05
2023-03-17T16:40:05.275Z,101051.95
2023-03-17T16:42:40.387Z,101052.81
2023-03-17T16:45:18.497Z,101058.89
2023-03-17T16:47:51.038Z,101061.48
2023-03-17T16:50:25.942Z,101069.25
2023-03-17T16:52:58.718Z,101072.72
2023-03-17T16:55:31.143Z,101069.28
2023-03-17T16:58:09.126Z,101076.19
2023-03-17T17:00:41.483Z,101077.91
2023-03-17T17:03:14.141Z,101079.66
2023-03-17T17:05:46.493Z,101077.06
2023-03-17T17:08:20.749Z,101081.40
2023-03-17T17:10:53.048Z,101080.55
2023-03-17T17:13:25.162Z,101082.28
2023-03-17T17:15:57.594Z,101088.31
2023-03-17T17:18:30.351Z,101088.34
2023-03-17T17:21:04.170Z,101096.10
2023-03-17T17:23:36.504Z,101090.05
2023-03-17T17:26:08.743Z,101093.52
2023-03-17T17:28:40.876Z,101091.79
2023-03-17T17:31:13.472Z,101094.37
2023-03-17T17:33:48.113Z,101096.97
2023-03-17T17:36:20.508Z,101091.77
2023-03-17T17:38:52.719Z,101105.59
2023-03-17T17:41:25.127Z,101108.17
2023-03-17T17:43:57.075Z,101112.51
2023-03-17T17:46:29.133Z,101111.62
2023-03-17T17:49:01.374Z,101111.61
2023-03-17T17:51:33.604Z,101108.15
2023-03-17T17:54:06.024Z,101112.47
2023-03-17T17:56:39.913Z,101116.78
2023-03-17T17:59:12.416Z,101126.28
2023-03-17T18:01:44.801Z,101135.78
2023-03-17T18:04:17.447Z,101132.30
2023-03-17T18:06:49.889Z,101131.44
2023-03-17T18:09:22.515Z,101140.05
2023-03-17T18:11:54.957Z,101151.27
2023-03-17T18:14:27.884Z,101146.11
2023-03-17T18:17:00.233Z,101147.79
2023-03-17T18:19:32.219Z,101158.14
2023-03-17T18:22:04.575Z,101158.14
2023-03-17T18:24:37.246Z,101168.52
2023-03-17T18:27:09.634Z,101169.36
2023-03-17T18:29:43.456Z,101174.50
2023-03-17T18:32:16.162Z,101172.73
2023-03-17T18:34:49.144Z,101172.72
2023-03-17T18:37:21.150Z,101180.45
2023-03-17T18:40:11.806Z,101184.73
2023-03-17T18:42:27.610Z,101188.20
2023-03-17T18:45:00.034Z,101191.65
2023-03-17T18:47:33.562Z,101190.78
2023-03-17T18:50:06.546Z,101202.83
2023-03-17T18:52:41.055Z,101201.09
2023-03-17T18:55:14.863Z,101205.44
2023-03-17T18:57:47.066Z,101214.86
2023-03-17T19:00:19.546Z,101213.09
2023-03-17T19:02:51.632Z,101211.36
2023-03-17T19:05:24.729Z,101208.77
2023-03-17T19:07:57.066Z,101213.95
2023-03-17T19:10:30.037Z,101220.79
2023-03-17T19:13:02.318Z,101224.21
2023-03-17T19:15:35.652Z,101227.63
2023-03-17T19:18:07.816Z,101231.13
2023-03-17T19:20:39.831Z,101225.82
2023-03-17T19:23:12.695Z,101227.53
2023-03-17T19:25:44.678Z,101237.86
2023-03-17T19:28:17.165Z,101229.20
2023-03-17T19:30:49.217Z,101238.65
2023-03-17T19:33:21.451Z,101239.49
2023-03-17T19:35:57.168Z,101241.17
2023-03-17T19:38:29.068Z,101245.47
2023-03-17T19:41:01.233Z,101248.03
2023-03-17T19:43:40.854Z,101241.92
2023-03-17T19:46:08.155Z,101254.85
2023-03-17T19:48:40.846Z,101246.20
2023-03-17T19:51:12.817Z,101252.22
2023-03-17T19:53:45.049Z,101245.31
2023-03-17T19:56:17.084Z,101255.62
2023-03-17T19:58:49.127Z,101253.88
2023-03-17T20:01:22.180Z,101252.14
2023-03-17T20:03:54.270Z,101253.84
2023-03-17T20:06:26.193Z,101257.27
2023-03-17T20:08:58.172Z,101254.69
2023-03-17T20:11:31.740Z,101259.88
2023-03-17T20:14:04.409Z,101259.91
2023-03-17T20:16:37.136Z,101263.34
2023-03-17T20:19:09.221Z,101268.50
2023-03-17T20:21:42.255Z,101264.98
2023-03-17T20:24:14.897Z,101264.98
2023-03-17T20:26:48.969Z,101266.66
2023-03-17T20:29:20.335Z,101266.66
2023-03-17T20:31:51.930Z,101271.86
2023-03-17T20:34:24.535Z,101267.42
2023-03-17T20:36:57.063Z,101276.88
2023-03-17T20:39:29.535Z,101275.98
2023-03-17T20:42:02.489Z,101273.36
2023-03-17T20:44:34.557Z,101275.04
2023-03-17T20:47:06.538Z,101275.04
2023-03-17T20:49:38.517Z,101274.15
2023-03-17T20:52:13.508Z,101279.27
2023-03-17T20:54:45.770Z,101268.95
2023-03-17T20:57:19.066Z,101281.94
2023-03-17T20:59:52.095Z,101281.85
2023-03-17T21:02:24.104Z,101287.02
2023-03-17T21:04:56.298Z,101292.20
2023-03-17T21:07:28.286Z,101283.56
2023-03-17T21:10:02.129Z,101285.20
2023-03-17T21:12:34.122Z,101289.45
2023-03-17T21:15:07.875Z,101296.27
2023-03-17T21:17:39.620Z,101299.71
2023-03-17T21:20:14.076Z,101289.31
2023-03-17T21:22:46.257Z,101304.81
2023-03-17T21:25:18.275Z,101304.76
2023-03-17T21:27:50.903Z,101303.91
2023-03-17T21:30:22.809Z,101303.02
2023-03-17T21:32:58.027Z,101307.31
2023-03-17T21:35:30.975Z,101308.98
2023-03-17T21:38:03.248Z,101317.59
2023-03-17T21:40:35.425Z,101314.11
2023-03-17T21:43:07.435Z,101317.55
2023-03-17T21:45:40.675Z,101313.20
2023-03-17T21:48:12.598Z,101318.33
2023-03-17T21:50:45.190Z,101327.72
2023-03-17T21:53:17.467Z,101324.17
2023-03-17T21:55:49.596Z,101331.05
2023-03-17T21:58:22.196Z,101340.48
2023-03-17T22:00:54.255Z,101338.70
2023-03-17T22:03:26.221Z,101348.12
2023-03-17T22:05:58.856Z,101346.34
2023-03-17T22:08:30.884Z,101348.86
2023-03-17T22:11:04.827Z,101353.98
2023-03-17T22:13:37.475Z,101349.68
2023-03-17T22:16:10.848Z,101359.97
2023-03-17T22:18:43.850Z,101355.58
2023-03-17T22:21:16.113Z,101358.13
2023-03-17T22:23:48.561Z,101357.25
2023-03-17T22:26:22.085Z,101359.80
2023-03-17T22:28:54.063Z,101365.84
2023-03-17T22:31:28.348Z,101371.05
2023-03-17T22:34:01.225Z,101366.71
2023-03-17T22:36:33.261Z,101370.99
2023-03-17T22:39:08.267Z,101375.24
2023-03-17T22:41:41.127Z,101376.94
2023-03-17T22:44:13.510Z,101385.53
2023-03-17T22:46:45.795Z,101390.63
2023-03-17T22:49:17.744Z,101398.33
2023-03-17T22:51:50.124Z,101392.29
2023-03-17T22:54:22.193Z,101393.99
2023-03-17T22:56:54.051Z,101397.42
2023-03-17T22:59:26.188Z,101407.73
2023-03-17T23:01:58.235Z,101400.81
2023-03-17T23:04:30.330Z,101398.20
2023-03-17T23:07:02.235Z,101404.24
2023-03-17T23:09:34.383Z,101414.52
2023-03-17T23:12:07.886Z,101409.31
2023-03-17T23:14:40.192Z,101414.47
2023-03-17T23:17:13.237Z,101404.94
2023-03-17T23:19:45.332Z,101415.22
2023-03-17T23:22:17.654Z,101421.22
2023-03-17T23:24:49.881Z,101419.42
2023-03-17T23:27:21.695Z,101413.45
2023-03-17T23:29:53.602Z,101421.19
2023-03-17T23:32:25.608Z,101424.61
2023-03-17T23:34:57.653Z,101422.84
2023-03-17T23:37:29.420Z,101429.70
2023-03-17T23:40:01.505Z,101427.94
2023-03-17T23:42:33.836Z,101432.25
2023-03-17T23:45:06.226Z,101439.94
2023-03-17T23:47:39.209Z,101443.30
2023-03-17T23:50:12.545Z,101441.50
2023-03-17T23:52:45.068Z,101443.16
2023-03-17T23:55:17.528Z,101450.05
2023-03-17T23:57:50.417Z,101450.86
